Latest Weather Observations for Browse Island

IDW60801

Issued at 10:03 pm WST Thursday 22 August 2019 (issued every 10 minutes, with the page automatically refreshed every 10 minutes)

About weather observations | Map of weather stations | Latest weather observations for WA | Other Formats
Station Details ID: 200784 Name: BROWSE ISLAND Lat: -14.11 Lon: 123.55 Height: 3.7 m
Data from the previous 72 hours. | See also: Recent months at Browse Island
Date/Time
WST
Temp
°C
App
Temp
°C
Dew
Point
°C
Rel
Hum
%
Delta-T
°C
Wind Press
QNH
hPa
Press
MSL
hPa
Rain since
9am
mm
Dir  Spd
km/h
Gust
km/h
Spd
kts
Gust
kts
22/10:00pm 25.7 - - - - E 7 7 4 4 1017.0 1017.2 -
22/09:30pm 26.0 - - - - ENE 7 - 4 - 1017.0 - -
22/09:00pm 25.7 - - - - NE 9 - 5 - 1017.0 1017.2 -
22/08:30pm 25.0 - - - - ENE 9 - 5 - 1017.0 - -
22/08:00pm 25.8 - - - - ENE 13 - 7 - 1017.0 1017.2 -
22/07:30pm 26.0 - - - - E 11 - 6 - 1017.0 - -
22/07:00pm 25.7 - - - - E 15 - 8 - 1016.0 1016.8 -
22/06:30pm 25.7 - - - - E 17 20 9 11 1016.5 1016.4 -
22/06:00pm 25.7 - - - - E 17 - 9 - 1016.0 1016.3 -
22/05:30pm 26.0 - - - - E 17 - 9 - 1016.0 - -
22/05:00pm 26.2 - - - - E 19 - 10 - 1016.0 1016.1 -
22/04:30pm 27.0 - - - - E 13 - 7 - 1015.0 - -
22/04:00pm 26.4 - - - - E 13 - 7 - 1015.0 1015.6 -
22/03:30pm 26.0 - - - - E 17 - 9 - 1015.0 - -
22/03:00pm 27.2 - - - - E 17 - 9 - 1015.0 1015.3 -
22/02:30pm 27.0 - - - - E 22 - 12 - 1015.0 - -
22/02:00pm 26.8 - - - - E 22 - 12 - 1015.0 1015.2 -
22/01:30pm 26.0 - - - - E 20 - 11 - 1015.0 - -
22/01:00pm 27.2 - - - - E 19 - 10 - 1015.0 1015.8 -
22/12:30pm 27.0 - - - - E 22 - 12 - 1016.0 - -
22/12:00pm 26.9 - - - - E 22 - 12 - 1016.0 1016.4 -
22/11:30am 27.0 - - - - E 22 - 12 - 1017.0 - -
22/11:00am 26.8 - - - - E 24 - 13 - 1017.0 1017.0 -
22/10:30am 27.0 - - - - E 22 - 12 - 1017.0 - -
22/10:00am 26.8 - - - - E 24 - 13 - 1017.0 1017.4 -
22/09:30am 27.0 - - - - E 24 - 13 - 1017.0 - -
22/09:00am 26.7 - - - - E 22 - 12 - 1017.0 1017.6 -
22/08:30am 27.0 - - - - E 20 - 11 - 1017.0 - -
22/08:00am 26.4 - - - - E 24 - 13 - 1017.0 1017.6 -
22/07:30am 26.0 - - - - E 24 - 13 - 1017.0 - -
22/07:00am 25.9 - - - - E 20 - 11 - 1017.0 1017.3 -
22/06:30am 25.0 - - - - E 24 - 13 - 1017.0 - -
22/06:00am 25.5 - - - - E 26 - 14 - 1016.0 1016.7 -
22/05:30am 25.0 - - - - E 24 - 13 - 1016.0 - -
22/05:00am 25.3 - - - - E 24 - 13 - 1016.0 1016.2 -
22/04:30am 26.0 - - - - ENE 22 - 12 - 1016.0 - -
22/04:00am 25.5 - - - - ENE 20 - 11 - 1016.0 1016.0 -
22/03:30am 25.0 - - - - ENE 22 - 12 - 1015.0 - -
22/03:00am 25.3 - - - - ENE 19 - 10 - 1015.0 1015.7 -
22/02:30am 25.0 - - - - ENE 20 - 11 - 1015.0 - -
22/02:00am 25.4 - - - - ENE 19 - 10 - 1015.0 1015.8 -
22/01:30am 25.0 - - - - E 15 - 8 - 1016.0 - -
22/01:00am 25.3 - - - - E 13 - 7 - 1016.0 1016.0 -
22/12:30am 25.0 - - - - E 13 - 7 - 1015.0 - -
22/12:00am 25.1 - - - - E 13 - 7 - 1015.0 1015.8 -
 
Date/Time
WST
Temp
°C
App
Temp
°C
Dew
Point
°C
Rel
Hum
%
Delta-T
°C
Wind Press
QNH
hPa
Press
MSL
hPa
Rain since
9am
mm
Dir  Spd
km/h
Gust
km/h
Spd
kts
Gust
kts
21/11:30pm 25.0 - - - - ENE 15 - 8 - 1016.0 - -
21/11:00pm 25.4 - - - - E 13 - 7 - 1016.0 1015.9 -
21/10:30pm 25.0 - - - - E 13 - 7 - 1016.0 - -
21/10:00pm 25.5 - - - - ENE 15 - 8 - 1016.0 1016.0 -
21/09:30pm 25.0 - - - - ENE 13 - 7 - 1016.0 - -
21/09:00pm 25.3 - - - - ENE 15 - 8 - 1015.0 1015.6 -
21/08:30pm 25.0 - - - - ENE 15 - 8 - 1015.0 - -
21/08:00pm 25.1 - - - - ENE 15 - 8 - 1015.0 1015.3 -
21/07:30pm 25.0 - - - - ENE 15 - 8 - 1015.0 - -
21/07:00pm 25.2 - - - - ENE 13 - 7 - 1014.0 1014.8 -
21/06:30pm 25.0 - - - - E 17 - 9 - 1014.0 - -
21/06:00pm 25.1 - - - - E 19 - 10 - 1014.0 1014.3 -
21/05:30pm 25.0 - - - - E 20 - 11 - 1014.0 - -
21/05:00pm 25.3 - - - - E 20 - 11 - 1014.0 1013.9 -
21/04:30pm 25.0 - - - - E 22 - 12 - 1013.0 - -
21/04:00pm 25.5 - - - - E 22 - 12 - 1013.0 1013.7 -
21/03:30pm 26.0 - - - - E 24 - 13 - 1013.0 - -
21/03:00pm 25.8 - - - - E 24 - 13 - 1013.0 1013.7 -
21/02:30pm 26.0 - - - - ENE 26 - 14 - 1014.0 - -
21/02:00pm 25.7 - - - - ENE 24 - 13 - 1014.0 1014.1 -
21/01:30pm 26.0 - - - - ENE 26 - 14 - 1014.0 - -
21/01:00pm 26.1 - - - - ENE 32 - 17 - 1014.0 1014.8 -
21/12:30pm 26.0 - - - - ENE 33 - 18 - 1015.0 - -
21/12:00pm 26.3 - - - - E 32 - 17 - 1015.0 1015.4 -
21/11:30am 26.0 - - - - E 32 - 17 - 1016.0 - -
21/11:00am 26.3 - - - - E 37 - 20 - 1016.0 1016.3 -
21/10:30am 26.0 - - - - E 37 - 20 - 1016.0 - -
21/10:00am 26.3 - - - - E 35 - 19 - 1017.0 1017.0 -
21/09:30am 26.0 - - - - E 33 - 18 - 1017.0 - -
21/09:00am 26.3 - - - - E 39 - 21 - 1017.0 1017.3 -
21/08:30am 26.0 - - - - E 35 - 19 - 1017.0 - -
21/08:00am 26.5 - - - - E 37 - 20 - 1017.0 1017.1 -
21/07:30am 27.0 - - - - E 33 - 18 - 1016.0 - -
21/07:00am 26.6 - - - - E 30 - 16 - 1016.0 1016.5 -
21/06:30am 26.0 - - - - E 32 - 17 - 1016.0 - -
21/06:00am 26.0 - - - - ESE 28 - 15 - 1016.0 1015.9 -
21/05:30am 26.0 - - - - E 24 - 13 - 1015.0 - -
21/05:00am 25.7 - - - - E 22 - 12 - 1015.0 1015.4 -
21/04:30am 26.0 - - - - E 20 - 11 - 1015.0 - -
21/04:00am 25.5 - - - - E 20 - 11 - 1015.0 1015.0 -
21/03:30am 26.0 - - - - E 19 - 10 - 1015.0 - -
21/03:00am 25.6 - - - - E 19 - 10 - 1014.0 1014.7 -
21/02:30am 26.0 - - - - E 17 - 9 - 1014.0 - -
21/02:00am 25.7 - - - - E 15 - 8 - 1015.0 1014.9 -
21/01:30am 26.0 - - - - E 13 - 7 - 1015.0 - -
21/01:00am 25.6 - - - - E 13 - 7 - 1015.0 1015.2 -
21/12:30am 26.0 - - - - ESE 11 - 6 - 1015.0 - -
21/12:00am 25.8 - - - - ESE 9 - 5 - 1015.0 1015.7 -
 
Date/Time
WST
Temp
°C
App
Temp
°C
Dew
Point
°C
Rel
Hum
%
Delta-T
°C
Wind Press
QNH
hPa
Press
MSL
hPa
Rain since
9am
mm
Dir  Spd
km/h
Gust
km/h
Spd
kts
Gust
kts
20/11:30pm 26.0 - - - - E 7 - 4 - 1015.0 - -
20/11:00pm 25.8 - - - - E 7 - 4 - 1015.0 1015.8 -
20/10:30pm 26.0 - - - - ENE 9 - 5 - 1016.0 - -
20/10:00pm 25.9 - - - - NE 11 - 6 - 1016.0 1016.2 -
20/09:30pm 26.0 - - - - ENE 13 - 7 - 1016.0 - -
20/09:00pm 25.8 - - - - ENE 13 - 7 - 1016.0 1016.0 -
20/08:30pm 26.0 - - - - NE 17 - 9 - 1016.0 - -
20/08:00pm 26.0 - - - - NE 17 - 9 - 1015.0 1015.7 -
20/07:30pm 26.0 - - - - ENE 22 - 12 - 1015.0 - -
20/07:00pm 26.2 - - - - ENE 22 - 12 - 1015.0 1015.6 -
20/06:30pm 26.0 - - - - NE 24 - 13 - 1015.0 - -
20/06:00pm 26.8 - - - - NE 28 - 15 - 1015.0 1014.9 -
20/05:30pm 27.0 - - - - ENE 26 - 14 - 1014.0 - -
20/05:00pm 26.9 - - - - ENE 28 - 15 - 1014.0 1014.6 -
20/04:30pm 27.0 - - - - ENE 28 - 15 - 1014.0 - -
20/04:00pm 27.2 - - - - ENE 26 - 14 - 1014.0 1014.3 -
20/03:30pm 27.0 - - - - ENE 30 - 16 - 1014.0 - -
20/03:00pm 27.5 - - - - E 32 - 17 - 1014.0 1014.3 -
20/02:30pm 28.0 - - - - E 35 - 19 - 1014.0 - -
20/02:00pm 27.8 - - - - E 35 - 19 - 1014.0 1014.5 -
20/01:30pm 28.0 - - - - E 35 - 19 - 1014.0 - -
20/01:00pm 27.6 - - - - E 37 - 20 - 1015.0 1015.2 -
20/12:30pm 28.0 - - - - E 35 - 19 - 1015.0 - -
20/12:00pm 27.9 - - - - E 37 - 20 - 1016.0 1015.9 -
20/11:30am 28.0 - - - - E 37 - 20 - 1016.0 - -
20/11:00am 28.1 - - - - E 35 - 19 - 1016.0 1016.6 -
20/10:30am 28.0 - - - - E 35 - 19 - 1017.0 - -
20/10:00am 27.8 - - - - E 30 - 16 - 1017.0 1017.1 -
20/09:30am 28.0 - - - - ENE 33 - 18 - 1017.0 - -
20/09:00am 27.8 - - - - E 33 - 18 - 1017.0 1017.2 -
20/08:30am 28.0 - - - - E 28 - 15 - 1017.0 - -
20/08:00am 27.1 - - - - E 28 - 15 - 1017.0 1016.9 -
20/07:30am 27.0 - - - - E 24 - 13 - 1016.0 - -
20/07:00am 26.1 - - - - E 19 - 10 - 1016.0 1016.4 -
20/06:30am 26.0 - - - - E 15 - 8 - 1016.0 - -
20/06:00am 25.4 - - - - ENE 11 - 6 - 1015.0 1015.7 -
20/05:30am 26.0 - - - - NNE 7 - 4 - 1015.0 - -
20/05:00am 25.6 - - - - N 9 - 5 - 1014.0 1014.4 -
20/04:30am 26.0 - - - - N 9 - 5 - 1014.0 - -
20/04:00am 25.6 - - - - N 7 - 4 - 1014.0 1014.0 -
20/03:30am 26.0 - - - - CALM 0 - 0 - 1014.0 - -
20/03:00am 25.8 - - - - CALM 0 - 0 - 1014.0 1014.2 -
20/02:30am 26.0 - - - - CALM 0 - 0 - 1014.0 - -
20/02:00am 26.0 - - - - SSW 6 - 3 - 1014.0 1014.3 -
20/01:30am 26.0 - - - - SSW 9 - 5 - 1014.0 - -
20/01:00am 26.3 - - - - S 9 - 5 - 1014.0 1014.7 -
20/12:30am 26.0 - - - - S 11 - 6 - 1014.0 - -
20/12:00am 26.4 - - - - S 13 - 7 - 1015.0 1015.1 -
 
Date/Time
WST
Temp
°C
App
Temp
°C
Dew
Point
°C
Rel
Hum
%
Delta-T
°C
Wind Press
QNH
hPa
Press
MSL
hPa
Rain since
9am
mm
Dir  Spd
km/h
Gust
km/h
Spd
kts
Gust
kts
19/11:30pm 27.0 - - - - S 15 - 8 - 1015.0 - -
19/11:00pm 26.3 - - - - S 20 - 11 - 1015.0 1015.3 -
19/10:30pm 26.0 - - - - S 24 - 13 - 1015.0 - -

Other formats

Comma delimited format used in spreadsheet applications
http://www.bom.gov.au/fwo/IDW60801/IDW60801.94103.axf

JavaScript Object Notation format (JSON) in row-major order
http://www.bom.gov.au/fwo/IDW60801/IDW60801.94103.json

Data quality

Most of these data are generated automatically and are frequently updated. Quality checks on data are not normally performed. It is possible for incorrect values to appear. Refer to information at About Latest Weather Observations and please check the disclaimer before using these data.